Terminal Aerodrome Forecast
Issued by NWS Duluth, MN

Home | Current Version | Previous Version | Text Only | Print | Product List | Glossary On
Versions: 1 2 3 4 5 6 7 8 9 10 11 12 13 14 15 16 17 18 19
000
FTUS43 KDLH 040534
TAFINL
TAF
KINL 040534Z 0406/0506 14005KT P6SM SKC WS020/19035KT
      TEMPO 0409/0411 2SM BR SCT002
     FM041100 14006KT P6SM SCT025
     FM041600 15010G17KT P6SM FEW040
     FM042300 14007KT P6SM VCSH BKN035=

USA.gov is the U.S. government's official web portal to all federal, state and local government web resources and services.